createdAt,value
2022-10-28T00:02:24.393Z,66192.75
2022-10-28T00:07:30.773Z,66226.97
2022-10-28T00:12:36.518Z,66198.63
2022-10-28T00:17:40.468Z,66192.13
2022-10-28T00:22:45.858Z,66209.38
2022-10-28T00:27:49.740Z,66281.22
2022-10-28T00:32:54.043Z,66235.38
2022-10-28T00:37:59.692Z,66222.59
2022-10-28T00:43:03.798Z,66269.88
2022-10-28T00:48:08.008Z,66261.84
2022-10-28T00:53:17.195Z,66334.78
2022-10-28T00:58:24.260Z,66282.66
2022-10-28T01:03:28.194Z,66292.31
2022-10-28T01:08:34.038Z,66223.66
2022-10-28T01:13:48.072Z,66290.78
2022-10-28T01:19:07.685Z,66291.25
2022-10-28T01:24:30.227Z,66322.38
2022-10-28T01:30:07.298Z,66314.31
2022-10-28T01:35:20.279Z,66314.41
2022-10-28T01:40:33.241Z,66304.03
2022-10-28T01:45:43.733Z,66322.00
2022-10-28T01:50:57.968Z,66193.09
2022-10-28T01:56:07.425Z,66206.69
2022-10-28T02:01:12.513Z,66217.94
2022-10-28T02:06:21.831Z,66253.16
2022-10-28T02:11:36.399Z,66297.59
2022-10-28T02:16:48.356Z,66231.16
2022-10-28T02:22:05.718Z,66271.50
2022-10-28T02:27:17.599Z,66237.16
2022-10-28T02:32:26.132Z,66205.34
2022-10-28T02:37:34.881Z,66208.75
2022-10-28T02:42:46.785Z,66203.47
2022-10-28T02:47:56.675Z,66138.53
2022-10-28T02:53:06.707Z,66197.41
2022-10-28T02:58:11.698Z,66128.81
2022-10-28T03:03:15.738Z,66162.03
2022-10-28T03:08:21.072Z,66211.50
2022-10-28T03:13:25.130Z,66157.28
2022-10-28T03:18:31.938Z,66085.44
2022-10-28T03:23:37.139Z,66199.00
2022-10-28T03:28:41.201Z,66157.81
2022-10-28T03:33:45.594Z,66158.91
2022-10-28T03:38:50.819Z,66196.03
2022-10-28T03:43:57.034Z,66201.78
2022-10-28T03:49:00.866Z,66167.56
2022-10-28T03:54:06.377Z,66147.22
2022-10-28T03:59:14.065Z,66215.72
2022-10-28T04:04:29.996Z,66132.66
2022-10-28T04:09:36.225Z,66093.47
2022-10-28T04:14:40.496Z,66126.22
2022-10-28T04:19:44.682Z,66133.63
2022-10-28T04:24:50.408Z,66087.22
2022-10-28T04:29:54.252Z,66193.22
2022-10-28T04:34:58.073Z,66216.69
2022-10-28T04:40:04.298Z,66116.56
2022-10-28T04:45:09.934Z,66174.97
2022-10-28T04:50:13.785Z,66183.56
2022-10-28T04:55:19.307Z,66226.44
2022-10-28T05:00:23.242Z,66236.00
2022-10-28T05:05:27.141Z,66164.63
2022-10-28T05:10:32.656Z,66125.69
2022-10-28T05:15:36.569Z,66141.13
2022-10-28T05:20:40.524Z,66128.81
2022-10-28T05:25:45.912Z,66227.69
2022-10-28T05:30:49.960Z,66212.50
2022-10-28T05:35:54.015Z,66203.38
2022-10-28T05:40:59.256Z,66171.84
2022-10-28T05:46:03.939Z,66222.69
2022-10-28T05:51:07.852Z,66240.38
2022-10-28T05:56:13.162Z,66311.09
2022-10-28T06:01:17.377Z,66330.41
2022-10-28T06:06:21.350Z,66362.00
2022-10-28T06:11:25.053Z,66368.97
2022-10-28T06:16:29.197Z,66350.34
2022-10-28T06:21:33.208Z,66446.97
2022-10-28T06:26:38.491Z,66399.19
2022-10-28T06:31:42.962Z,66370.66
2022-10-28T06:36:47.055Z,66355.63
2022-10-28T06:41:52.539Z,66395.88
2022-10-28T06:46:57.952Z,66304.66
2022-10-28T06:52:02.004Z,66436.72
2022-10-28T06:57:07.326Z,66575.94
2022-10-28T07:02:12.244Z,66525.41
2022-10-28T07:07:16.368Z,66540.97
2022-10-28T07:12:22.006Z,66498.63
2022-10-28T07:17:26.116Z,66437.25
2022-10-28T07:22:29.990Z,66502.22
2022-10-28T07:27:35.335Z,66472.69
2022-10-28T07:32:39.323Z,66541.97
2022-10-28T07:37:43.331Z,66661.34
2022-10-28T07:42:48.728Z,66703.34
2022-10-28T07:47:53.238Z,66789.56
2022-10-28T07:52:57.335Z,66694.25
2022-10-28T07:58:02.717Z,66771.66
2022-10-28T08:03:06.878Z,66779.81
2022-10-28T08:08:11.029Z,66719.53
2022-10-28T08:13:16.323Z,66814.81
2022-10-28T08:18:20.522Z,66802.94
2022-10-28T08:23:24.416Z,66796.50
2022-10-28T08:28:30.055Z,66849.81
2022-10-28T08:33:33.947Z,66852.44
2022-10-28T08:38:41.642Z,66885.44
2022-10-28T08:44:03.257Z,66865.97
2022-10-28T08:49:19.813Z,66871.28
2022-10-28T08:54:28.706Z,66904.16
2022-10-28T08:59:39.043Z,66870.66
2022-10-28T09:04:44.733Z,66923.16
2022-10-28T09:09:51.333Z,66898.91
2022-10-28T09:15:14.328Z,66968.28
2022-10-28T09:20:21.889Z,66996.38
2022-10-28T09:25:33.530Z,66934.41
2022-10-28T09:30:49.502Z,67042.09
2022-10-28T09:35:54.870Z,67007.22
2022-10-28T09:41:03.485Z,66912.22
2022-10-28T09:46:13.492Z,66951.66
2022-10-28T09:51:28.328Z,66924.16
2022-10-28T09:56:35.800Z,66926.78
2022-10-28T10:01:43.727Z,67005.00
2022-10-28T10:06:50.713Z,67020.56
2022-10-28T10:11:57.290Z,66975.84
2022-10-28T10:17:06.564Z,66951.66
2022-10-28T10:22:29.630Z,66981.22
2022-10-28T10:27:33.656Z,67108.50
2022-10-28T10:32:38.983Z,67062.72
2022-10-28T10:37:45.411Z,67049.72
2022-10-28T10:43:09.505Z,67026.03
2022-10-28T10:48:18.785Z,67044.84
2022-10-28T10:53:25.741Z,67059.44
2022-10-28T10:58:32.259Z,67034.69
2022-10-28T11:03:40.522Z,67066.91
2022-10-28T11:08:47.511Z,67027.59
2022-10-28T11:14:08.697Z,67087.53
2022-10-28T11:19:22.348Z,67216.47
2022-10-28T11:24:41.322Z,67125.75
2022-10-28T11:29:46.956Z,67033.63
2022-10-28T11:35:06.645Z,67164.16
2022-10-28T11:40:30.599Z,67201.28
2022-10-28T11:45:39.938Z,67372.13
2022-10-28T11:51:02.075Z,67338.72
2022-10-28T11:56:23.851Z,67422.47
2022-10-28T12:01:41.476Z,67350.56
2022-10-28T12:07:02.321Z,67439.16
2022-10-28T12:12:16.888Z,67359.16
2022-10-28T12:17:27.707Z,67447.25
2022-10-28T12:22:40.555Z,67420.16
2022-10-28T12:27:48.845Z,67419.16
2022-10-28T12:32:57.843Z,67364.53
2022-10-28T12:38:10.200Z,67275.41
2022-10-28T12:43:19.977Z,67164.69
2022-10-28T12:48:32.698Z,67215.91
2022-10-28T12:53:44.124Z,67184.63
2022-10-28T12:58:56.294Z,67090.78
2022-10-28T13:04:00.487Z,67109.72
2022-10-28T13:09:33.322Z,67080.59
2022-10-28T13:15:06.249Z,67091.78
2022-10-28T13:20:20.804Z,67197.50
2022-10-28T13:25:41.652Z,67208.50
2022-10-28T13:30:57.702Z,67266.69
2022-10-28T13:36:19.773Z,67165.72
2022-10-28T13:41:40.868Z,67136.56
2022-10-28T13:47:27.738Z,67078.44
2022-10-28T13:52:31.780Z,67025.09
2022-10-28T13:57:39.058Z,67036.91
2022-10-28T14:02:47.690Z,66958.59
2022-10-28T14:07:56.006Z,66871.84
2022-10-28T14:13:04.557Z,66924.09
2022-10-28T14:18:42.516Z,66890.81
2022-10-28T14:24:34.061Z,66919.69
2022-10-28T14:29:45.581Z,66964.06
2022-10-28T14:34:50.469Z,66925.16
2022-10-28T14:40:07.145Z,66871.75
2022-10-28T14:45:26.621Z,66877.84
2022-10-28T14:50:39.486Z,66920.94
2022-10-28T14:55:48.547Z,66920.31
2022-10-28T15:01:05.942Z,66877.91
2022-10-28T15:06:32.661Z,66848.13
2022-10-28T15:11:36.655Z,66884.69
2022-10-28T15:16:49.458Z,66760.91
2022-10-28T15:22:04.498Z,66765.88
2022-10-28T15:27:12.698Z,66692.72
2022-10-28T15:32:30.773Z,66687.16
2022-10-28T15:37:37.460Z,66720.69
2022-10-28T15:42:45.716Z,66750.75
2022-10-28T15:47:51.133Z,66683.47
2022-10-28T15:52:57.482Z,66706.16
2022-10-28T15:58:04.117Z,66710.94
2022-10-28T16:03:26.865Z,66728.59
2022-10-28T16:08:32.440Z,66723.31
2022-10-28T16:13:38.604Z,66644.22
2022-10-28T16:18:47.332Z,66655.03
2022-10-28T16:23:56.407Z,66626.47
2022-10-28T16:29:00.331Z,66652.28
2022-10-28T16:34:05.917Z,66660.88
2022-10-28T16:39:13.105Z,66641.47
2022-10-28T16:44:19.326Z,66638.31
2022-10-28T16:49:24.774Z,66635.00
2022-10-28T16:54:28.717Z,66574.88
2022-10-28T16:59:32.524Z,66580.25
2022-10-28T17:04:37.612Z,66585.00
2022-10-28T17:09:41.498Z,66630.84
2022-10-28T17:14:45.719Z,66587.06
2022-10-28T17:19:50.780Z,66576.31
2022-10-28T17:24:54.958Z,66547.50
2022-10-28T17:29:59.037Z,66518.34
2022-10-28T17:35:04.990Z,66515.75
2022-10-28T17:40:11.122Z,66473.38
2022-10-28T17:45:18.003Z,66551.59
2022-10-28T17:50:26.335Z,66518.81
2022-10-28T17:55:30.407Z,66482.44
2022-10-28T18:00:34.220Z,66545.84
2022-10-28T18:05:39.477Z,66500.25
2022-10-28T18:10:52.416Z,66551.72
2022-10-28T18:15:56.369Z,66480.19
2022-10-28T18:21:02.009Z,66516.28
2022-10-28T18:26:07.405Z,66492.66
2022-10-28T18:31:15.696Z,66491.47
2022-10-28T18:36:22.530Z,66537.31
2022-10-28T18:41:28.565Z,66512.53
2022-10-28T18:46:34.387Z,66453.97
2022-10-28T18:51:39.648Z,66426.03
2022-10-28T18:56:47.605Z,66550.19
2022-10-28T19:01:52.584Z,66473.38
2022-10-28T19:06:57.790Z,66497.47
2022-10-28T19:12:01.879Z,66495.78
2022-10-28T19:17:05.682Z,66478.66
2022-10-28T19:22:11.894Z,66431.44
2022-10-28T19:27:15.634Z,66470.00
2022-10-28T19:32:19.426Z,66415.84
2022-10-28T19:37:25.256Z,66407.34
2022-10-28T19:42:29.042Z,66518.34
2022-10-28T19:47:33.326Z,66484.13
2022-10-28T19:52:38.623Z,66500.16
2022-10-28T19:57:42.543Z,66475.81
2022-10-28T20:02:48.306Z,66440.03
2022-10-28T20:07:54.618Z,66473.84
2022-10-28T20:12:58.550Z,66488.34
2022-10-28T20:18:02.350Z,66495.78
2022-10-28T20:23:07.504Z,66483.88
2022-10-28T20:28:11.366Z,66491.47
2022-10-28T20:33:15.129Z,66492.09
2022-10-28T20:38:20.586Z,66467.38
2022-10-28T20:43:28.926Z,66447.44
2022-10-28T20:48:32.848Z,66421.69
2022-10-28T20:53:38.411Z,66478.75
2022-10-28T20:58:42.191Z,66456.50
2022-10-28T21:03:46.616Z,66404.00
2022-10-28T21:08:51.854Z,66384.06
2022-10-28T21:13:58.613Z,66411.56
2022-10-28T21:19:02.934Z,66415.84
2022-10-28T21:24:08.892Z,66412.09
2022-10-28T21:29:12.406Z,66424.44
2022-10-28T21:34:16.201Z,66394.97
2022-10-28T21:39:21.283Z,66449.59
2022-10-28T21:44:25.142Z,66484.41
2022-10-28T21:49:29.270Z,66465.16
2022-10-28T21:54:35.033Z,66398.56
2022-10-28T21:59:38.792Z,66406.09
2022-10-28T22:04:42.726Z,66416.75
2022-10-28T22:09:47.877Z,66437.31
2022-10-28T22:14:51.592Z,66399.09
2022-10-28T22:19:55.406Z,66381.56
2022-10-28T22:25:01.287Z,66440.63
2022-10-28T22:30:07.425Z,66458.19
2022-10-28T22:35:11.257Z,66444.31
2022-10-28T22:40:16.608Z,66502.75
2022-10-28T22:45:20.447Z,66391.22
2022-10-28T22:50:24.162Z,66438.84
2022-10-28T22:55:29.278Z,66398.56
2022-10-28T23:00:33.499Z,66439.84
2022-10-28T23:05:37.497Z,66398.09
2022-10-28T23:10:42.790Z,66424.28
2022-10-28T23:15:46.611Z,66413.16
2022-10-28T23:20:50.420Z,66431.50
2022-10-28T23:25:57.301Z,66472.13
2022-10-28T23:31:01.889Z,66487.81
2022-10-28T23:36:06.385Z,66455.66
2022-10-28T23:41:14.621Z,66415.22
2022-10-28T23:46:19.771Z,66408.75
2022-10-28T23:51:23.812Z,66394.97
2022-10-28T23:56:29.084Z,66440.38
